createdAt,value
2023-02-11T00:00:19.529Z,35.72
2023-02-11T00:03:22.517Z,37.80
2023-02-11T00:06:28.192Z,36.80
2023-02-11T00:09:31.944Z,39.35
2023-02-11T00:12:36.176Z,37.47
2023-02-11T00:15:39.104Z,34.63
2023-02-11T00:18:42.180Z,33.53
2023-02-11T00:21:45.166Z,35.80
2023-02-11T00:24:48.852Z,32.92
2023-02-11T00:27:52.449Z,34.40
2023-02-11T00:30:58.834Z,37.03
2023-02-11T00:34:02.069Z,33.67
2023-02-11T00:37:05.698Z,29.20
2023-02-11T00:40:09.622Z,41.85
2023-02-11T00:43:12.756Z,34.17
2023-02-11T00:46:16.365Z,32.25
2023-02-11T00:49:19.516Z,30.57
2023-02-11T00:52:22.552Z,33.97
2023-02-11T00:55:25.386Z,36.35
2023-02-11T00:58:30.099Z,35.03
2023-02-11T01:01:33.126Z,36.03
2023-02-11T01:04:36.198Z,33.37
2023-02-11T01:07:39.209Z,31.70
2023-02-11T01:10:44.203Z,36.85
2023-02-11T01:13:48.493Z,32.00
2023-02-11T01:16:51.340Z,34.40
2023-02-11T01:19:54.377Z,31.83
2023-02-11T01:22:57.260Z,32.03
2023-02-11T01:26:00.180Z,33.30
2023-02-11T01:29:03.173Z,32.25
2023-02-11T01:32:06.141Z,33.53
2023-02-11T01:35:09.373Z,32.10
2023-02-11T01:38:20.595Z,34.23
2023-02-11T01:41:24.370Z,32.17
2023-02-11T01:44:36.718Z,30.98
2023-02-11T01:47:40.345Z,29.23
2023-02-11T01:50:46.996Z,31.00
2023-02-11T01:54:09.430Z,32.47
2023-02-11T01:57:25.137Z,30.55
2023-02-11T02:00:34.557Z,30.45
2023-02-11T02:03:38.566Z,33.92
2023-02-11T02:06:46.056Z,32.77
2023-02-11T02:09:53.436Z,37.23
2023-02-11T02:12:56.479Z,32.63
2023-02-11T02:16:01.808Z,27.65
2023-02-11T02:19:48.010Z,31.65
2023-02-11T02:22:59.824Z,30.20
2023-02-11T02:26:33.768Z,33.20
2023-02-11T02:29:57.897Z,29.00
2023-02-11T02:33:21.576Z,30.70
2023-02-11T02:36:44.436Z,36.63
2023-02-11T02:39:49.263Z,34.30
2023-02-11T02:42:53.182Z,33.33
2023-02-11T02:45:56.158Z,32.17
2023-02-11T02:49:00.056Z,32.97
2023-02-11T02:52:22.033Z,31.60
2023-02-11T02:55:57.182Z,32.90
2023-02-11T02:59:21.765Z,32.47
2023-02-11T03:02:34.255Z,33.60
2023-02-11T03:05:58.587Z,33.10
2023-02-11T03:09:10.316Z,34.83
2023-02-11T03:12:15.182Z,30.37
2023-02-11T03:15:19.210Z,34.30
2023-02-11T03:18:25.343Z,35.30
2023-02-11T03:21:30.378Z,28.58
2023-02-11T03:24:39.442Z,37.33
2023-02-11T03:27:47.823Z,34.10
2023-02-11T03:30:57.178Z,34.93
2023-02-11T03:34:14.706Z,30.92
2023-02-11T03:37:24.744Z,32.00
2023-02-11T03:40:30.344Z,33.65
2023-02-11T03:43:41.722Z,32.43
2023-02-11T03:46:49.167Z,28.20
2023-02-11T03:49:55.205Z,35.10
2023-02-11T03:52:59.717Z,35.88
2023-02-11T03:56:06.827Z,31.10
2023-02-11T03:59:09.763Z,32.00
2023-02-11T04:02:12.922Z,35.47
2023-02-11T04:05:16.650Z,35.70
2023-02-11T04:08:19.633Z,30.95
2023-02-11T04:11:22.431Z,32.72
2023-02-11T04:14:25.375Z,32.40
2023-02-11T04:17:28.171Z,30.60
2023-02-11T04:20:31.150Z,33.25
2023-02-11T04:23:34.025Z,35.10
2023-02-11T04:26:36.922Z,32.00
2023-02-11T04:29:39.832Z,29.53
2023-02-11T04:32:42.668Z,29.27
2023-02-11T04:35:45.667Z,31.12
2023-02-11T04:38:48.622Z,37.75
2023-02-11T04:41:51.478Z,31.33
2023-02-11T04:44:54.383Z,34.10
2023-02-11T04:47:57.211Z,35.37
2023-02-11T04:51:00.259Z,31.65
2023-02-11T04:54:03.054Z,30.37
2023-02-11T04:57:06.262Z,32.72
2023-02-11T05:00:10.330Z,33.27
2023-02-11T05:03:13.682Z,34.47
2023-02-11T05:06:16.421Z,34.92
2023-02-11T05:09:22.685Z,29.52
2023-02-11T05:12:25.626Z,34.20
2023-02-11T05:15:28.984Z,32.10
2023-02-11T05:18:31.777Z,33.30
2023-02-11T05:21:34.580Z,29.17
2023-02-11T05:24:37.473Z,36.17
2023-02-11T05:27:40.336Z,35.10
2023-02-11T05:30:43.275Z,36.53
2023-02-11T05:33:49.170Z,34.60
2023-02-11T05:36:58.109Z,33.28
2023-02-11T05:40:00.909Z,32.75
2023-02-11T05:43:03.792Z,32.85
2023-02-11T05:46:06.992Z,38.13
2023-02-11T05:49:14.443Z,32.00
2023-02-11T05:52:20.918Z,35.33
2023-02-11T05:55:24.438Z,32.28
2023-02-11T05:58:27.645Z,31.83
2023-02-11T06:01:30.732Z,39.37
2023-02-11T06:04:33.902Z,32.93
2023-02-11T06:07:36.683Z,32.13
2023-02-11T06:10:42.720Z,33.20
2023-02-11T06:13:48.549Z,35.83
2023-02-11T06:16:51.424Z,33.33
2023-02-11T06:19:54.450Z,38.50
2023-02-11T06:22:57.508Z,35.13
2023-02-11T06:26:05.579Z,32.38
2023-02-11T06:29:08.584Z,39.13
2023-02-11T06:32:28.156Z,37.40
2023-02-11T06:35:35.630Z,36.33
2023-02-11T06:38:38.944Z,35.95
2023-02-11T06:41:41.804Z,36.95
2023-02-11T06:44:44.857Z,34.08
2023-02-11T06:47:51.684Z,41.37
2023-02-11T06:50:54.546Z,38.87
2023-02-11T06:53:57.436Z,39.90
2023-02-11T06:57:00.441Z,37.90
2023-02-11T07:00:03.746Z,38.45
2023-02-11T07:03:09.301Z,36.93
2023-02-11T07:06:14.851Z,43.43
2023-02-11T07:09:20.758Z,35.75
2023-02-11T07:12:23.608Z,40.90
2023-02-11T07:15:26.666Z,38.78
2023-02-11T07:18:29.706Z,39.03
2023-02-11T07:21:32.598Z,39.27
2023-02-11T07:24:35.828Z,40.85
2023-02-11T07:27:38.700Z,40.75
2023-02-11T07:30:44.625Z,39.95
2023-02-11T07:33:50.224Z,40.57
2023-02-11T07:36:53.049Z,39.93
2023-02-11T07:39:56.064Z,39.17
2023-02-11T07:42:58.895Z,36.95
2023-02-11T07:46:06.357Z,44.50
2023-02-11T07:49:09.660Z,41.33
2023-02-11T07:52:12.604Z,39.10
2023-02-11T07:55:15.710Z,44.30
2023-02-11T07:58:18.660Z,40.33
2023-02-11T08:01:28.703Z,37.25
2023-02-11T08:04:33.304Z,42.07
2023-02-11T08:07:37.317Z,37.30
2023-02-11T08:10:43.264Z,39.38
2023-02-11T08:13:46.675Z,40.88
2023-02-11T08:16:49.521Z,35.97
2023-02-11T08:19:53.098Z,42.83
2023-02-11T08:22:59.450Z,41.47
2023-02-11T08:26:05.052Z,37.33
2023-02-11T08:29:12.457Z,38.28
2023-02-11T08:32:15.434Z,36.25
2023-02-11T08:35:18.652Z,37.97
2023-02-11T08:38:23.326Z,37.23
2023-02-11T08:41:26.924Z,39.22
2023-02-11T08:44:30.322Z,36.72
2023-02-11T08:47:33.650Z,37.03
2023-02-11T08:50:40.169Z,40.60
2023-02-11T08:53:45.948Z,39.27
2023-02-11T08:56:51.589Z,36.35
2023-02-11T08:59:54.706Z,39.08
2023-02-11T09:02:57.848Z,32.92
2023-02-11T09:06:06.001Z,35.27
2023-02-11T09:09:12.440Z,39.10
2023-02-11T09:12:15.498Z,34.60
2023-02-11T09:15:18.363Z,40.40
2023-02-11T09:18:21.347Z,40.28
2023-02-11T09:21:24.468Z,35.77
2023-02-11T09:24:27.308Z,41.63
2023-02-11T09:27:30.122Z,35.83
2023-02-11T09:30:33.185Z,36.65
2023-02-11T09:33:42.408Z,41.15
2023-02-11T09:36:45.279Z,34.63
2023-02-11T09:39:48.058Z,38.13
2023-02-11T09:43:16.679Z,36.65
2023-02-11T09:46:21.011Z,37.88
2023-02-11T09:49:48.378Z,35.50
2023-02-11T09:53:03.618Z,40.73
2023-02-11T09:56:12.904Z,35.70
2023-02-11T09:59:20.478Z,37.83
2023-02-11T10:03:08.000Z,40.28
2023-02-11T10:06:38.559Z,39.35
2023-02-11T10:10:02.978Z,36.60
2023-02-11T10:13:17.988Z,40.30
2023-02-11T10:16:31.795Z,37.25
2023-02-11T10:19:57.631Z,37.30
2023-02-11T10:23:32.834Z,33.83
2023-02-11T10:26:37.680Z,32.70
2023-02-11T10:30:07.575Z,33.63
2023-02-11T10:33:28.766Z,33.60
2023-02-11T10:36:37.270Z,32.50
2023-02-11T10:39:41.422Z,32.20
2023-02-11T10:42:49.346Z,34.57
2023-02-11T10:45:53.466Z,35.43
2023-02-11T10:48:56.590Z,34.85
2023-02-11T10:52:35.226Z,35.80
2023-02-11T10:55:38.197Z,34.30
2023-02-11T10:58:46.805Z,36.07
2023-02-11T11:02:06.210Z,36.77
2023-02-11T11:05:21.107Z,36.88
2023-02-11T11:08:47.581Z,35.78
2023-02-11T11:11:54.174Z,34.17
2023-02-11T11:15:04.068Z,33.97
2023-02-11T11:18:23.203Z,34.77
2023-02-11T11:21:41.885Z,32.33
2023-02-11T11:24:46.882Z,34.30
2023-02-11T11:27:54.462Z,34.28
2023-02-11T11:30:59.050Z,34.13
2023-02-11T11:34:17.694Z,34.07
2023-02-11T11:37:24.273Z,36.85
2023-02-11T11:40:32.538Z,35.05
2023-02-11T11:43:37.814Z,31.98
2023-02-11T11:46:42.986Z,34.03
2023-02-11T11:49:58.330Z,33.33
2023-02-11T11:53:19.746Z,34.25
2023-02-11T11:56:25.693Z,35.15
2023-02-11T11:59:29.053Z,31.90
2023-02-11T12:03:25.585Z,29.87
2023-02-11T12:06:54.079Z,32.50
2023-02-11T12:10:15.554Z,32.75
2023-02-11T12:13:21.374Z,35.95
2023-02-11T12:16:59.003Z,32.70
2023-02-11T12:20:19.768Z,32.40
2023-02-11T12:24:04.500Z,28.33
2023-02-11T12:27:45.716Z,29.17
2023-02-11T12:30:57.593Z,30.17
2023-02-11T12:34:25.752Z,31.73
2023-02-11T12:37:58.256Z,32.33
2023-02-11T12:41:16.404Z,28.93
2023-02-11T12:44:52.049Z,31.52
2023-02-11T12:47:58.018Z,31.75
2023-02-11T12:51:22.826Z,33.00
2023-02-11T12:54:46.775Z,32.97
2023-02-11T12:57:51.034Z,30.47
2023-02-11T13:01:24.455Z,31.25
2023-02-11T13:04:34.692Z,31.87
2023-02-11T13:07:41.208Z,30.35
2023-02-11T13:10:49.044Z,30.98
2023-02-11T13:14:06.941Z,31.33
2023-02-11T13:17:34.433Z,30.95
2023-02-11T13:20:50.257Z,28.65
2023-02-11T13:24:30.127Z,29.15
2023-02-11T13:27:38.363Z,29.20
2023-02-11T13:30:47.481Z,30.87
2023-02-11T13:33:50.439Z,30.70
2023-02-11T13:36:57.411Z,29.40
2023-02-11T13:40:06.285Z,29.15
2023-02-11T13:43:28.673Z,28.67
2023-02-11T13:46:50.782Z,30.20
2023-02-11T13:49:54.639Z,30.52
2023-02-11T13:52:59.538Z,28.15
2023-02-11T13:56:09.126Z,28.02
2023-02-11T13:59:33.626Z,30.33
2023-02-11T14:02:55.880Z,27.83
2023-02-11T14:06:29.474Z,26.48
2023-02-11T14:09:38.747Z,28.25
2023-02-11T14:12:41.567Z,26.50
2023-02-11T14:15:46.891Z,27.83
2023-02-11T14:18:50.253Z,27.07
2023-02-11T14:21:53.862Z,27.42
2023-02-11T14:24:59.878Z,26.27
2023-02-11T14:28:21.376Z,25.98
2023-02-11T14:31:34.324Z,33.53
2023-02-11T14:35:02.879Z,28.53
2023-02-11T14:38:05.738Z,25.15
2023-02-11T14:41:18.908Z,28.77
2023-02-11T14:44:24.488Z,27.25
2023-02-11T14:47:37.376Z,28.63
2023-02-11T14:50:46.773Z,31.93
2023-02-11T14:53:51.709Z,25.40
2023-02-11T14:57:08.545Z,26.37
2023-02-11T15:00:20.413Z,26.33
2023-02-11T15:03:29.615Z,25.10
2023-02-11T15:06:43.263Z,25.03
2023-02-11T15:09:52.220Z,26.17
2023-02-11T15:12:55.725Z,25.40
2023-02-11T15:16:02.715Z,28.02
2023-02-11T15:19:07.415Z,24.77
2023-02-11T15:22:20.360Z,26.40
2023-02-11T15:25:24.218Z,23.98
2023-02-11T15:28:30.096Z,24.70
2023-02-11T15:31:35.084Z,24.20
2023-02-11T15:34:38.388Z,24.50
2023-02-11T15:37:41.371Z,25.33
2023-02-11T15:41:01.006Z,23.95
2023-02-11T15:44:04.558Z,26.23
2023-02-11T15:47:11.171Z,22.35
2023-02-11T15:50:22.865Z,24.10
2023-02-11T15:53:40.675Z,25.97
2023-02-11T15:56:45.235Z,23.83
2023-02-11T15:59:50.835Z,25.52
2023-02-11T16:02:54.312Z,25.10
2023-02-11T16:05:57.473Z,26.30
2023-02-11T16:09:25.703Z,26.70
2023-02-11T16:12:29.443Z,28.12
2023-02-11T16:15:38.353Z,24.90
2023-02-11T16:19:03.469Z,25.23
2023-02-11T16:22:10.430Z,25.50
2023-02-11T16:25:19.142Z,26.57
2023-02-11T16:28:22.316Z,29.27
2023-02-11T16:31:33.588Z,26.58
2023-02-11T16:34:36.931Z,29.17
2023-02-11T16:37:40.026Z,30.53
2023-02-11T16:40:44.611Z,32.03
2023-02-11T16:43:47.622Z,28.35
2023-02-11T16:46:50.678Z,33.00
2023-02-11T16:49:53.666Z,31.67
2023-02-11T16:52:56.952Z,30.77
2023-02-11T16:55:59.863Z,33.50
2023-02-11T16:59:03.186Z,27.77
2023-02-11T17:02:14.886Z,28.05
2023-02-11T17:05:20.493Z,28.17
2023-02-11T17:08:23.673Z,32.73
2023-02-11T17:11:26.592Z,31.27
2023-02-11T17:14:29.850Z,28.85
2023-02-11T17:17:32.541Z,32.90
2023-02-11T17:20:35.697Z,28.62
2023-02-11T17:23:39.178Z,27.53
2023-02-11T17:26:42.704Z,26.73
2023-02-11T17:29:45.975Z,26.98
2023-02-11T17:32:49.864Z,25.92
2023-02-11T17:35:53.081Z,27.80
2023-02-11T17:38:56.558Z,26.07
2023-02-11T17:41:59.622Z,25.10
2023-02-11T17:45:02.381Z,24.92
2023-02-11T17:48:06.197Z,25.75
2023-02-11T17:51:27.981Z,26.15
2023-02-11T17:54:30.921Z,25.43
2023-02-11T17:57:34.616Z,29.90
2023-02-11T18:00:37.655Z,26.50
2023-02-11T18:03:40.696Z,27.90
2023-02-11T18:06:44.144Z,28.23
2023-02-11T18:09:47.709Z,27.30
2023-02-11T18:12:50.828Z,27.33
2023-02-11T18:15:53.700Z,27.52
2023-02-11T18:18:58.615Z,25.62
2023-02-11T18:22:01.719Z,26.65
2023-02-11T18:25:05.931Z,25.50
2023-02-11T18:28:08.812Z,26.20
2023-02-11T18:31:11.929Z,24.42
2023-02-11T18:34:16.064Z,25.60
2023-02-11T18:37:20.233Z,27.02
2023-02-11T18:40:22.938Z,23.50
2023-02-11T18:43:33.835Z,24.03
2023-02-11T18:46:36.912Z,26.30
2023-02-11T18:49:39.735Z,24.27
2023-02-11T18:52:43.842Z,23.12
2023-02-11T18:55:53.009Z,25.23
2023-02-11T18:59:01.475Z,25.70
2023-02-11T19:02:09.776Z,23.25
2023-02-11T19:05:19.749Z,26.02
2023-02-11T19:08:23.410Z,27.48
2023-02-11T19:11:49.122Z,27.00
2023-02-11T19:14:52.161Z,25.83
2023-02-11T19:17:55.209Z,27.02
2023-02-11T19:21:00.933Z,24.52
2023-02-11T19:24:07.965Z,25.42
2023-02-11T19:27:11.674Z,25.43
2023-02-11T19:30:14.792Z,23.40
2023-02-11T19:33:17.599Z,22.33
2023-02-11T19:36:21.537Z,21.37
2023-02-11T19:39:24.987Z,22.58
2023-02-11T19:42:28.368Z,22.80
2023-02-11T19:45:31.631Z,23.17
2023-02-11T19:48:34.932Z,26.92
2023-02-11T19:51:41.066Z,26.10
2023-02-11T19:54:55.330Z,22.42
2023-02-11T19:58:05.100Z,26.13
2023-02-11T20:01:12.284Z,21.77
2023-02-11T20:04:18.450Z,22.08
2023-02-11T20:07:21.410Z,22.52
2023-02-11T20:10:25.129Z,22.83
2023-02-11T20:13:30.186Z,25.07
2023-02-11T20:16:46.801Z,23.77
2023-02-11T20:19:51.898Z,25.75
2023-02-11T20:22:54.982Z,22.70
2023-02-11T20:25:57.922Z,24.20
2023-02-11T20:29:02.640Z,23.63
2023-02-11T20:32:06.688Z,23.90
2023-02-11T20:35:10.097Z,21.73
2023-02-11T20:38:13.052Z,19.12
2023-02-11T20:41:19.001Z,19.73
2023-02-11T20:44:22.525Z,17.83
2023-02-11T20:47:25.581Z,20.17
2023-02-11T20:50:28.682Z,23.17
2023-02-11T20:53:32.928Z,19.20
2023-02-11T20:56:37.258Z,18.90
2023-02-11T20:59:40.364Z,20.00
2023-02-11T21:02:43.099Z,19.10
2023-02-11T21:05:46.104Z,18.58
2023-02-11T21:08:49.594Z,19.45
2023-02-11T21:11:53.292Z,18.10
2023-02-11T21:14:56.690Z,19.50
2023-02-11T21:17:59.651Z,23.97
2023-02-11T21:21:04.298Z,17.80
2023-02-11T21:24:09.345Z,19.37
2023-02-11T21:27:12.375Z,20.45
2023-02-11T21:30:15.343Z,18.47
2023-02-11T21:33:18.310Z,18.97
2023-02-11T21:36:22.238Z,18.42
2023-02-11T21:39:25.579Z,22.75
2023-02-11T21:42:28.300Z,20.27
2023-02-11T21:45:32.432Z,21.00
2023-02-11T21:48:35.695Z,22.13
2023-02-11T21:51:39.945Z,20.90
2023-02-11T21:54:42.750Z,18.73
2023-02-11T21:57:45.719Z,21.87
2023-02-11T22:00:48.474Z,20.20
2023-02-11T22:03:51.669Z,19.17
2023-02-11T22:06:54.338Z,19.55
2023-02-11T22:09:57.099Z,20.30
2023-02-11T22:12:59.766Z,21.25
2023-02-11T22:16:05.228Z,22.03
2023-02-11T22:19:07.954Z,20.03
2023-02-11T22:22:10.851Z,21.83
2023-02-11T22:25:13.728Z,17.62
2023-02-11T22:28:20.140Z,20.10
2023-02-11T22:31:25.791Z,20.30
2023-02-11T22:34:28.620Z,19.10
2023-02-11T22:37:31.358Z,21.30
2023-02-11T22:40:34.051Z,19.85
2023-02-11T22:43:38.054Z,23.73
2023-02-11T22:46:41.182Z,21.33
2023-02-11T22:49:43.906Z,20.77
2023-02-11T22:52:47.126Z,22.85
2023-02-11T22:55:53.424Z,22.40
2023-02-11T22:59:00.863Z,21.70
2023-02-11T23:02:03.616Z,19.13
2023-02-11T23:05:07.239Z,22.00
2023-02-11T23:08:11.108Z,19.05
2023-02-11T23:11:20.092Z,18.02
2023-02-11T23:14:23.317Z,19.17
2023-02-11T23:17:26.429Z,19.73
2023-02-11T23:20:29.146Z,20.80
2023-02-11T23:23:31.836Z,19.45
2023-02-11T23:26:35.130Z,21.30
2023-02-11T23:29:40.982Z,20.92
2023-02-11T23:32:43.718Z,18.67
2023-02-11T23:35:49.642Z,22.73
2023-02-11T23:38:52.553Z,23.58
2023-02-11T23:41:59.133Z,28.35
2023-02-11T23:45:02.045Z,23.65
2023-02-11T23:48:05.150Z,23.57
2023-02-11T23:51:09.852Z,22.57
2023-02-11T23:54:13.341Z,22.60
2023-02-11T23:57:16.532Z,20.15
